Summit Argo, IL (60501)

04:47 AM CDT del 30 Settembre 2014 (GMT -0500)
Garfield Ridge | Change Station
CLOSE
Current Station
Stazione meteo personale
Location: Chicago, IL
Altitudine: 604 ft
Stazioni meteo nelle vicinanze

Alt. 604 ft 41.78 °N, 87.79 °W | Updated 10 seconds ago

Coperto
Coperto
54.0 °F
Sembra 54.0 °F
N
2.2
Vento Variabile Vento da NNO
Gusts 6.9 mph

Oggi
Massima -- | Minima -- °F
--% Possibilità di precip.
Ieri
Massima -- | Minima -- °F
Precip. -- in
6:47 AM 6:34 PM
Luna crescente, 35% visible
Pressione 30.01 in
Visibilità 10.0 miglia
Nuvole Molto nuvoloso 1400 ft
Punto di rugiada 49 °F
Umidità 84%
Piovosità 0.00 in
Spessore del manto nevoso Non disponibile.
Raggi UV 0 fuori da 12
Polline 3.90 fuori da 12
Ozono Buono
PM2.5 Buono
Flu Activity Non disponibile.
METAR KMDW 300851Z 02012KT 10SM BKN014 0VC019 13/09 A3003 RMK SLP163 T01280089 53007

More Conditions Fewer Conditions

Pressione 30.01 in
Visibilità 10.0 miglia
Nuvole Molto nuvoloso 1400 ft
Punto di rugiada 49 °F
Umidità 84%
Piovosità 0.00 in
Spessore del manto nevoso Non disponibile.
Raggi UV 0 fuori da 12
Polline 3.90 fuori da 12
Ozono Buono
PM2.5 Buono
Flu Activity Non disponibile.
METAR KMDW 300851Z 02012KT 10SM BKN014 0VC019 13/09 A3003 RMK SLP163 T01280089 53007

More Conditions Fewer Conditions

10-Day Weather Forecast

Almanac

Astronomia

Sep. 30, 2014 Alba Tramonto
Ora attuale 06:47 CDT 18:34 CDT
Crepuscolo civile 06:19 CDT 19:02 CDT
Crepuscolo nautico 05:47 CDT 19:34 CDT
Crepuscolo astronomico 05:14 CDT 20:07 CDT
Luna 12:58 CDT 23:00 CDT
Estensione della luce visibile 12h 42m
Lunghezza del giorno
11h 47m
Tomorrow will be 2m 45s shorter.
Luna crescente, 35% of the Moon is Illuminated
Oggi
Luna crescente
Ott 1
Primo quarto
Ott 8
Luna piena
Ott 15
Ultimo quarto
Ott 23
Nuovo

Gli estremi di oggi

State Highs State Lows

Community

WunderPhotos

Upload Photos

1,757,606 foto caricate!

Nearby

Qualità dell'aria

  Qualità dell'aria Indice AQ Inquinante
Ieri Moderato
PM2.5
Ieri Moderato
OZONE
Attuale Buono
PM2.5
Attuale Buono
OZONE
Martedì Moderato
PM2.5
Mercoledì Moderato
PM2.5
Giovedì Moderato
PM2.5
Venerdì Buono
PM2.5
Sabato Buono
PM2.5

Profondità neve

Stazione Profondità Altitudine
Non sono state evidenziate nuove nevicate

Attività sismica

Città  Distanza Mag. Data & Ora
Non sono state riportate attività sismiche nelle vicinanze.
Minimo Magnitudo Mostrato è 2.5.

Temperature delle acque costiere

Località Temperatura
Nessun dato dalle stazioni

Stazioni meteo nelle vicinanze